Time;durP1;ratioP1;P1;durP2;ratioP2;P2;SDS_P1;SDS_P2;PMS_P1;PMS_P2;Temp;Humidity;BMP_temperature;BMP_pressure;BME280_temperature;BME280_humidity;BME280_pressure;Samples;Min_cycle;Max_cycle;Signal;HPM_P1;HPM_P2
2021/11/02 00:08:41;;;;;;;;;;;;;;;;;;;;;
2021/11/02 00:11:50;;;;;;;;;;;;;;;;;;;;;
2021/11/02 00:15:24;;;;;;;;;;;;;;;;;;;;;
2021/11/02 00:18:36;;;;;;;807.60;757.77;;;6.00;99.90;;;;;;5942697;24;20426;-84
2021/11/02 00:50:36;;;;;;;763.23;718.23;;;6.50;99.90;;;;;;5989358;24;20422;-85
2021/11/02 00:53:15;;;;;;;776.20;730.80;;;6.40;99.90;;;;;;6019376;23;20418;-85
2021/11/02 00:56:03;;;;;;;718.40;678.93;;;6.70;99.90;;;;;;6048192;23;20428;-84
2021/11/02 00:59:22;;;;;;;;;;;;;;;;;;;;;
2021/11/02 01:05:17;;;;;;;608.50;580.20;;;6.80;99.90;;;;;;5999530;23;20829;-85
2021/11/02 01:20:36;;;;;;;586.13;560.53;;;6.60;99.90;;;;;;5963693;23;20458;-85
2021/11/02 01:33:13;;;;;;;571.40;547.40;;;6.60;99.90;;;;;;5924422;24;20546;-84
2021/11/02 01:39:16;;;;;;;630.53;602.67;;;6.50;99.90;;;;;;6013207;23;20422;-84
2021/11/02 01:42:10;;;;;;;648.57;619.63;;;6.30;99.90;;;;;;5907768;24;20418;-85
2021/11/02 01:45:09;;;;;;;674.63;642.87;;;6.30;99.90;;;;;;5991894;24;20443;-84
2021/11/02 01:47:49;;;;;;;650.47;621.20;;;6.50;99.90;;;;;;6010670;23;20424;-83
2021/11/02 01:51:09;;;;;;;;;;;;;;;;;;;;;
2021/11/02 01:54:15;;;;;;;591.97;566.50;;;6.40;99.90;;;;;;6076463;23;20889;-84
2021/11/02 02:04:08;;;;;;;654.27;624.77;;;6.30;99.90;;;;;;6084076;23;20928;-84
2021/11/02 02:10:07;;;;;;;719.93;683.40;;;5.90;99.90;;;;;;6046049;23;20924;-83
2021/11/02 02:13:38;;;;;;;;;;;;;;;;;;;;;
2021/11/02 02:16:33;;;;;;;;;;;;;;;;;;;;;
2021/11/02 02:19:37;;;;;;;817.33;765.90;;;5.60;99.90;;;;;;6076040;23;20488;-84
2021/11/02 02:22:57;;;;;;;845.20;789.70;;;5.60;99.90;;;;;;6066463;23;20952;-84
2021/11/02 02:25:47;;;;;;;840.60;787.47;;;5.90;99.90;;;;;;5966027;23;20458;-84
2021/11/02 02:29:02;;;;;;;;;;;;;;;;;;;;;
2021/11/02 02:35:14;;;;;;;711.37;674.17;;;6.10;99.90;;;;;;6064418;23;20473;-84
2021/11/02 02:44:37;;;;;;;;;;;;;;;;;;;;;
2021/11/02 02:47:39;;;;;;;;;;;;;;;;;;;;;
2021/11/02 02:50:32;;;;;;;629.60;601.10;;;6.20;99.90;;;;;;6133678;23;20927;-84
2021/11/02 02:53:39;;;;;;;;;;;;;;;;;;;;;
2021/11/02 02:56:26;;;;;;;;;;;;;;;;;;;;;
2021/11/02 02:59:05;;;;;;;578.83;553.77;;;6.30;99.90;;;;;;6226376;23;20401;-83
2021/11/02 03:02:01;;;;;;;;;;;;;;;;;;;;;
2021/11/02 03:04:37;;;;;;;601.90;574.70;;;6.20;99.90;;;;;;6211099;23;20918;-85
2021/11/02 03:07:31;;;;;;;625.87;597.87;;;6.10;99.90;;;;;;6216283;23;20427;-83
2021/11/02 03:13:33;;;;;;;664.27;633.10;;;6.10;99.90;;;;;;6223975;23;20891;-84
2021/11/02 03:16:49;;;;;;;;;;;;;;;;;;;;;
2021/11/02 03:54:53;;;;;;;859.33;799.33;;;4.20;99.90;;;;;;6120120;23;20421;-84
2021/11/02 03:57:56;;;;;;;851.17;792.40;;;4.20;99.90;;;;;;6157637;23;20483;-84
2021/11/02 04:01:12;;;;;;;845.07;784.90;;;4.20;99.90;;;;;;6182899;23;20467;-84
2021/11/02 05:58:59;;;;;;;;;;;;;;;;;;;;;
2021/11/02 06:01:40;;;;;;;847.27;777.07;;;4.60;99.90;;;;;;6214249;23;20734;-86
2021/11/02 06:04:40;;;;;;;851.90;781.53;;;4.70;99.90;;;;;;6226495;23;20418;-86
2021/11/02 06:07:42;;;;;;;845.33;774.73;;;4.90;99.90;;;;;;6226571;23;20784;-84
2021/11/02 06:10:46;;;;;;;844.77;774.90;;;4.90;99.90;;;;;;6216976;23;20775;-84
2021/11/02 06:23:36;;;;;;;;;;;;;;;;;;;;;
2021/11/02 07:16:28;;;;;;;;;;;;;;;;;;;;;
2021/11/02 09:20:39;;;;;;;;;;;;;;;;;;;;;
2021/11/02 09:27:07;;;;;;;;;;;;;;;;;;;;;
2021/11/02 09:30:10;;;;;;;9.07;8.30;;;9.60;85.60;;;;;;5963780;23;20532;-82
2021/11/02 13:04:20;;;;;;;552.33;529.07;;;10.20;95.00;;;;;;6178177;23;20445;-83
2021/11/02 13:07:01;;;;;;;;;;;;;;;;;;;;;
2021/11/02 14:58:26;;;;;;;612.30;586.13;;;9.10;96.40;;;;;;5779515;24;20897;-84
2021/11/02 15:01:24;;;;;;;628.53;602.00;;;9.10;98.70;;;;;;5953674;23;20446;-84
2021/11/02 15:04:11;;;;;;;619.87;593.87;;;9.10;97.80;;;;;;5990366;23;20427;-83
2021/11/02 15:06:52;;;;;;;480.40;462.77;;;9.00;99.90;;;;;;6046198;23;20489;-84
2021/11/02 15:09:22;;;;;;;447.53;432.30;;;8.80;98.70;;;;;;6094802;23;20470;-83
2021/11/02 15:11:51;;;;;;;570.30;550.50;;;8.70;99.90;;;;;;6104457;23;20415;-82
2021/11/02 15:14:25;;;;;;;719.77;688.10;;;8.70;99.90;;;;;;6112140;23;20444;-82
2021/11/02 15:17:02;;;;;;;719.13;687.43;;;8.70;99.90;;;;;;6164509;23;20711;-83
2021/11/02 15:19:33;;;;;;;718.43;685.67;;;8.70;99.90;;;;;;6166071;23;20452;-82
2021/11/02 15:22:02;;;;;;;736.70;701.83;;;8.70;99.90;;;;;;6156040;23;20429;-82
2021/11/02 15:24:34;;;;;;;718.23;686.47;;;8.80;99.90;;;;;;6156295;23;20394;-82
2021/11/02 15:30:49;;;;;;;;;;;;;;;;;;;;;
2021/11/02 15:34:03;;;;;;;;;;;;;;;;;;;;;
2021/11/02 16:04:40;;;;;;;771.60;722.97;;;8.50;99.90;;;;;;5741936;24;20446;-85
2021/11/02 16:07:10;;;;;;;771.53;718.15;;;8.60;99.90;;;;;;6014519;23;20766;-78
2021/11/02 16:10:23;;;;;;;;;;;;;;;;;;;;;
